Time;durP1;ratioP1;P1;durP2;ratioP2;P2;SDS_P1;SDS_P2;PMS_P1;PMS_P2;Temp;Humidity;BMP_temperature;BMP_pressure;BME280_temperature;BME280_humidity;BME280_pressure;Samples;Min_cycle;Max_cycle;Signal;HPM_P1;HPM_P2
2022/01/22 00:01:14;;;;;;;19.00;3.10;;;9.30;99.90;;;;;;5071347;28;20440;-73
2022/01/22 00:03:40;;;;;;;17.93;2.87;;;9.30;99.90;;;;;;5089155;28;20417;-72
2022/01/22 00:06:05;;;;;;;16.38;2.47;;;9.30;99.90;;;;;;5067408;28;20490;-72
2022/01/22 00:08:31;;;;;;;20.67;2.90;;;9.30;99.90;;;;;;5086832;28;20411;-74
2022/01/22 00:10:57;;;;;;;19.58;2.95;;;9.30;99.90;;;;;;5071495;28;20762;-72
2022/01/22 00:16:07;;;;;;;17.85;2.47;;;9.30;99.90;;;;;;5076300;28;20415;-72
2022/01/22 00:18:33;;;;;;;21.40;3.00;;;9.30;99.90;;;;;;5093765;28;20399;-70
2022/01/22 00:20:59;;;;;;;17.85;3.10;;;9.30;99.90;;;;;;5088493;28;20451;-71
2022/01/22 00:23:26;;;;;;;18.97;2.70;;;9.30;99.90;;;;;;5073269;28;20410;-71
2022/01/22 00:25:54;;;;;;;24.77;2.95;;;9.30;99.90;;;;;;5071778;28;20443;-71
2022/01/22 00:28:20;;;;;;;16.03;2.83;;;9.30;99.90;;;;;;5066066;28;20736;-73
2022/01/22 00:30:46;;;;;;;17.60;2.85;;;9.30;99.90;;;;;;5069039;28;20471;-71
2022/01/22 00:33:12;;;;;;;18.48;2.75;;;9.30;99.90;;;;;;5091529;28;20447;-70
2022/01/22 00:35:38;;;;;;;18.98;2.72;;;9.30;99.90;;;;;;5059492;28;20469;-72
2022/01/22 00:38:04;;;;;;;12.37;2.57;;;9.30;99.90;;;;;;5108629;28;20779;-72
2022/01/22 00:40:30;;;;;;;22.17;2.95;;;9.30;99.90;;;;;;5080021;28;20417;-75
2022/01/22 00:42:55;;;;;;;21.87;2.90;;;9.30;99.90;;;;;;5076495;28;21114;-73
2022/01/22 00:45:21;;;;;;;17.77;2.78;;;9.30;99.90;;;;;;5098964;28;20423;-71
2022/01/22 00:47:48;;;;;;;20.13;2.83;;;9.30;99.90;;;;;;5097563;28;20412;-74
2022/01/22 00:50:17;;;;;;;18.52;3.20;;;9.40;99.90;;;;;;5074825;28;20433;-71
2022/01/22 00:52:45;;;;;;;18.38;2.83;;;9.30;99.90;;;;;;5072131;28;20454;-73
2022/01/22 00:55:11;;;;;;;19.13;2.70;;;9.40;99.90;;;;;;5071283;28;20446;-70
2022/01/22 00:57:37;;;;;;;21.90;2.90;;;9.30;99.90;;;;;;5088789;28;20572;-73
2022/01/22 01:00:09;;;;;;;16.98;2.95;;;9.30;99.90;;;;;;5073401;28;20399;-71
2022/01/22 01:02:36;;;;;;;15.65;2.55;;;9.40;99.90;;;;;;5072963;28;20402;-71
2022/01/22 01:05:04;;;;;;;18.95;2.70;;;9.30;99.90;;;;;;5100952;28;20404;-72
2022/01/22 01:07:30;;;;;;;20.40;2.97;;;9.30;99.90;;;;;;5070667;28;20404;-72
2022/01/22 01:09:58;;;;;;;18.70;2.80;;;9.30;99.90;;;;;;5074912;28;20410;-71
2022/01/22 01:12:24;;;;;;;18.73;3.08;;;9.40;99.90;;;;;;5071205;28;20413;-72
2022/01/22 01:15:10;;;;;;;19.35;2.88;;;9.40;99.90;;;;;;5074211;28;20437;-74
2022/01/22 01:34:14;;;;;;;21.38;3.00;;;9.50;99.90;;;;;;5091381;28;20421;-73
2022/01/22 01:36:42;;;;;;;26.42;3.65;;;9.50;99.90;;;;;;5089156;28;20420;-73
2022/01/22 01:39:14;;;;;;;16.20;3.05;;;9.50;99.90;;;;;;5081943;28;20410;-74
2022/01/22 01:42:33;;;;;;;14.98;2.15;;;9.50;99.90;;;;;;5072622;28;20400;-74
2022/01/22 01:44:29;;;;;;;16.13;2.08;;;9.50;99.90;;;;;;5095481;27;20412;-73
2022/01/22 01:47:12;;;;;;;20.50;2.22;;;9.50;99.90;;;;;;5076440;28;20758;-74
2022/01/22 01:49:38;;;;;;;23.33;2.60;;;9.50;99.90;;;;;;5092520;28;20924;-73
2022/01/22 01:52:18;;;;;;;20.13;2.33;;;9.60;99.90;;;;;;5074582;28;20465;-71
2022/01/22 02:00:15;;;;;;;13.27;1.95;;;9.60;99.90;;;;;;5006952;28;20428;-73
2022/01/22 02:02:48;;;;;;;15.70;2.10;;;9.60;99.90;;;;;;5057038;28;20433;-73
2022/01/22 02:05:21;;;;;;;13.20;1.92;;;9.60;99.90;;;;;;5070793;28;20456;-74
2022/01/22 02:07:47;;;;;;;13.15;1.90;;;9.60;99.90;;;;;;5071006;28;20429;-72
2022/01/22 02:10:21;;;;;;;12.70;1.80;;;9.60;99.90;;;;;;5068194;28;20975;-72
2022/01/22 02:23:45;;;;;;;18.58;2.30;;;9.70;99.90;;;;;;5072909;28;20811;-74
2022/01/22 02:26:13;;;;;;;15.02;2.40;;;9.70;99.90;;;;;;5050894;28;20417;-72
2022/01/22 02:28:48;;;;;;;15.13;1.83;;;9.70;99.90;;;;;;5075989;28;20810;-72
2022/01/22 02:31:26;;;;;;;15.45;2.00;;;9.70;99.90;;;;;;5070023;28;20405;-70
2022/01/22 02:36:44;;;;;;;15.48;2.08;;;9.70;99.90;;;;;;5085481;28;20402;-73
2022/01/22 02:39:15;;;;;;;11.35;1.65;;;9.70;99.90;;;;;;5062079;28;20923;-72
2022/01/22 02:41:47;;;;;;;10.40;2.03;;;9.60;99.90;;;;;;5080479;28;20453;-73
2022/01/22 02:44:31;;;;;;;14.90;2.00;;;9.70;99.90;;;;;;5081425;28;20726;-74
2022/01/22 02:46:57;;;;;;;15.13;2.58;;;9.70;99.90;;;;;;5076518;28;20902;-72
2022/01/22 02:49:23;;;;;;;16.70;2.33;;;9.70;99.90;;;;;;5075099;28;20413;-73
2022/01/22 02:51:49;;;;;;;12.73;1.98;;;9.70;99.90;;;;;;5068511;28;20397;-72
2022/01/22 02:54:14;;;;;;;14.53;2.30;;;9.70;99.90;;;;;;5078287;28;20420;-73
2022/01/22 02:56:40;;;;;;;13.38;2.00;;;9.70;99.90;;;;;;5072393;28;20504;-73
2022/01/22 02:59:06;;;;;;;19.02;2.20;;;9.70;99.90;;;;;;5077651;28;20493;-71
2022/01/22 03:01:32;;;;;;;19.07;2.10;;;9.70;99.90;;;;;;5072866;28;20442;-76
2022/01/22 03:03:57;;;;;;;16.23;2.17;;;9.70;99.90;;;;;;5082693;28;21175;-74
2022/01/22 03:06:23;;;;;;;14.32;1.90;;;9.70;99.90;;;;;;5075137;28;20486;-73
2022/01/22 03:08:49;;;;;;;14.50;1.97;;;9.70;99.90;;;;;;5072710;28;20424;-74
2022/01/22 03:11:29;;;;;;;15.88;2.30;;;9.70;99.90;;;;;;5071227;28;20453;-77
2022/01/22 03:14:45;;;;;;;18.75;1.90;;;9.70;99.90;;;;;;5090906;28;20417;-72
2022/01/22 03:16:59;;;;;;;17.80;2.40;;;9.70;99.90;;;;;;5073387;28;20404;-74
2022/01/22 03:19:53;;;;;;;13.18;2.05;;;9.70;99.90;;;;;;5120807;27;20494;-73
2022/01/22 03:22:18;;;;;;;16.48;2.20;;;9.70;99.90;;;;;;5091122;28;20412;-73
2022/01/22 03:27:32;;;;;;;15.35;1.83;;;9.70;99.90;;;;;;5075516;28;20413;-73
2022/01/22 03:29:59;;;;;;;10.70;1.65;;;9.70;99.90;;;;;;5080316;28;20397;-73
2022/01/22 03:32:29;;;;;;;12.30;1.77;;;9.70;99.90;;;;;;5097911;28;20422;-75
2022/01/22 03:34:58;;;;;;;12.52;1.70;;;9.70;99.90;;;;;;5080840;28;20828;-73
2022/01/22 03:37:25;;;;;;;14.18;1.95;;;9.70;99.90;;;;;;5074688;28;20492;-73
2022/01/22 03:39:52;;;;;;;11.50;1.60;;;9.70;99.90;;;;;;5071428;28;20406;-76
2022/01/22 03:42:18;;;;;;;11.43;1.60;;;9.70;99.90;;;;;;5059044;28;20768;-73
2022/01/22 03:44:44;;;;;;;13.32;1.55;;;9.70;99.90;;;;;;5071840;28;20411;-73
2022/01/22 03:47:10;;;;;;;14.63;1.93;;;9.70;99.90;;;;;;5071854;28;20410;-72
2022/01/22 03:49:35;;;;;;;16.08;1.88;;;9.70;99.90;;;;;;5066527;28;20403;-71
2022/01/22 03:52:02;;;;;;;11.97;1.83;;;9.80;99.90;;;;;;5061778;28;20423;-72
2022/01/22 03:54:28;;;;;;;10.87;1.30;;;9.80;99.90;;;;;;5082348;28;20410;-72
2022/01/22 03:56:54;;;;;;;9.88;1.65;;;9.80;99.90;;;;;;5068119;28;20431;-74
2022/01/22 03:59:29;;;;;;;9.80;1.58;;;9.80;99.90;;;;;;5080105;28;20410;-71
2022/01/22 04:02:30;;;;;;;15.82;1.85;;;9.80;99.90;;;;;;5069269;28;22489;-75
2022/01/22 04:04:53;;;;;;;11.52;1.80;;;9.80;99.90;;;;;;5083521;28;20399;-73
2022/01/22 04:10:07;;;;;;;12.48;1.90;;;9.80;99.90;;;;;;5069992;28;20418;-73
2022/01/22 04:12:43;;;;;;;18.20;2.03;;;9.80;99.90;;;;;;5077427;28;20406;-73
2022/01/22 04:15:11;;;;;;;15.85;2.00;;;9.90;99.90;;;;;;5083445;28;20411;-74
2022/01/22 04:26:01;;;;;;;17.45;1.98;;;9.80;99.90;;;;;;5077923;28;20505;-71
2022/01/22 04:28:26;;;;;;;13.82;2.00;;;9.80;99.90;;;;;;5084691;28;20415;-74
2022/01/22 04:30:52;;;;;;;16.70;2.13;;;9.80;99.90;;;;;;5070108;28;20441;-72
2022/01/22 04:33:18;;;;;;;20.25;2.20;;;9.80;99.90;;;;;;5057803;28;20404;-72
2022/01/22 04:35:44;;;;;;;11.00;1.93;;;9.80;99.90;;;;;;5081078;28;20500;-75
2022/01/22 04:38:10;;;;;;;15.40;2.13;;;9.80;99.90;;;;;;5076897;28;20931;-72
2022/01/22 04:40:36;;;;;;;15.77;2.50;;;9.80;99.90;;;;;;5092847;28;20418;-73
2022/01/22 04:43:04;;;;;;;12.48;2.10;;;9.90;99.90;;;;;;5116443;27;20407;-73
2022/01/22 04:45:46;;;;;;;13.97;2.37;;;9.80;99.90;;;;;;5063985;28;20394;-73
2022/01/22 04:56:50;;;;;;;17.15;2.53;;;9.80;99.90;;;;;;5070937;28;20443;-70
2022/01/22 04:59:16;;;;;;;11.53;1.80;;;9.80;99.90;;;;;;5071916;28;20437;-72
2022/01/22 05:01:41;;;;;;;13.90;1.70;;;9.80;99.90;;;;;;5078632;28;20795;-71
2022/01/22 05:04:19;;;;;;;10.20;2.00;;;9.80;99.90;;;;;;5071499;28;20469;-72
2022/01/22 05:07:02;;;;;;;13.55;1.92;;;9.90;99.90;;;;;;5071481;28;20758;-73
2022/01/22 05:09:36;;;;;;;14.73;2.05;;;9.80;99.90;;;;;;5076911;28;20400;-72
2022/01/22 05:12:04;;;;;;;13.00;1.90;;;9.90;99.90;;;;;;5059381;28;20409;-73
2022/01/22 05:14:31;;;;;;;15.00;2.05;;;9.80;99.90;;;;;;5063746;28;20509;-73
2022/01/22 05:16:59;;;;;;;18.42;1.85;;;9.80;99.90;;;;;;5062450;28;20532;-73
2022/01/22 05:22:56;;;;;;;14.30;1.97;;;9.90;99.90;;;;;;5102188;28;20394;-70
2022/01/22 05:24:57;;;;;;;12.13;1.88;;;9.90;99.90;;;;;;5065682;28;20402;-74
2022/01/22 05:27:37;;;;;;;11.15;1.65;;;9.90;99.90;;;;;;5077339;28;20989;-75
2022/01/22 05:30:35;;;;;;;17.38;2.00;;;9.90;99.90;;;;;;5082100;28;20488;-71
2022/01/22 05:38:56;;;;;;;14.10;3.60;;;9.90;99.90;;;;;;5072601;28;20462;-72
2022/01/22 05:41:22;;;;;;;14.27;2.23;;;9.90;99.90;;;;;;5108896;27;20773;-72
2022/01/22 05:43:47;;;;;;;14.35;1.90;;;9.90;99.90;;;;;;5063435;28;20411;-70
2022/01/22 05:46:13;;;;;;;10.73;1.83;;;9.90;99.90;;;;;;5070704;28;20878;-71
2022/01/22 05:48:40;;;;;;;16.90;2.00;;;10.00;99.90;;;;;;5099366;28;20426;-73
2022/01/22 05:51:07;;;;;;;15.37;2.43;;;9.90;99.90;;;;;;5090008;28;20409;-72
2022/01/22 05:54:02;;;;;;;18.75;2.50;;;9.90;99.90;;;;;;5065639;28;20392;-75
2022/01/22 06:01:57;;;;;;;12.95;2.50;;;9.90;99.90;;;;;;5066042;28;20403;-73
2022/01/22 06:04:23;;;;;;;17.77;2.47;;;10.00;99.90;;;;;;5067894;28;20413;-72
2022/01/22 06:06:56;;;;;;;16.08;2.45;;;10.00;99.90;;;;;;5068406;28;20402;-72
2022/01/22 06:09:24;;;;;;;19.63;2.28;;;10.00;99.90;;;;;;5085770;28;20470;-73
2022/01/22 06:11:57;;;;;;;12.30;2.40;;;9.90;99.90;;;;;;5068447;28;20459;-74
2022/01/22 06:14:35;;;;;;;20.73;2.30;;;10.00;99.90;;;;;;5066025;28;20406;-75
2022/01/22 06:17:02;;;;;;;13.98;2.00;;;9.90;99.90;;;;;;5066196;28;20413;-74
2022/01/22 06:19:35;;;;;;;14.48;2.22;;;9.90;99.90;;;;;;5067844;28;20470;-73
2022/01/22 06:22:02;;;;;;;19.15;3.92;;;9.90;99.90;;;;;;5062587;28;20421;-75
2022/01/22 06:24:30;;;;;;;16.92;3.20;;;9.90;99.90;;;;;;5108230;27;20396;-74
2022/01/22 06:26:56;;;;;;;15.50;2.38;;;9.90;99.90;;;;;;5065446;28;20416;-72
2022/01/22 06:29:22;;;;;;;15.20;2.03;;;9.90;99.90;;;;;;5106875;27;20963;-75
2022/01/22 06:31:48;;;;;;;14.23;2.28;;;9.90;99.90;;;;;;5074245;28;20975;-72
2022/01/22 06:34:15;;;;;;;11.93;1.83;;;9.90;99.90;;;;;;5065529;28;20415;-72
2022/01/22 06:36:42;;;;;;;13.40;2.30;;;9.90;99.90;;;;;;5083451;28;21273;-75
2022/01/22 06:39:11;;;;;;;14.90;1.97;;;9.90;99.90;;;;;;5053741;28;20418;-73
2022/01/22 06:41:56;;;;;;;15.40;2.08;;;9.90;99.90;;;;;;5084071;28;20460;-75
2022/01/22 06:44:40;;;;;;;15.27;2.47;;;9.90;99.90;;;;;;5066731;28;21341;-73
2022/01/22 06:47:25;;;;;;;16.77;2.10;;;9.90;99.90;;;;;;5086768;28;20420;-74
2022/01/22 06:50:09;;;;;;;12.10;1.92;;;9.90;99.90;;;;;;5055628;28;20409;-72
2022/01/22 06:52:56;;;;;;;11.82;2.10;;;9.90;99.90;;;;;;5089285;28;20470;-73
2022/01/22 06:55:41;;;;;;;16.02;2.00;;;9.90;99.90;;;;;;5075288;28;20412;-74
2022/01/22 06:58:08;;;;;;;13.32;1.90;;;9.80;99.90;;;;;;5058915;28;20402;-73
2022/01/22 07:00:36;;;;;;;11.38;2.03;;;9.90;99.90;;;;;;5074020;28;20409;-75
2022/01/22 07:03:20;;;;;;;11.93;1.88;;;9.80;99.90;;;;;;5104716;28;20398;-73
2022/01/22 07:05:51;;;;;;;13.73;1.90;;;9.80;99.90;;;;;;5078750;28;20485;-74
2022/01/22 07:08:17;;;;;;;15.47;2.87;;;9.80;99.90;;;;;;5064127;28;20985;-71
2022/01/22 07:10:48;;;;;;;9.50;1.77;;;9.80;99.90;;;;;;5072896;28;20901;-72
2022/01/22 07:13:15;;;;;;;14.93;2.40;;;9.80;99.90;;;;;;5068907;28;20939;-71
2022/01/22 07:15:41;;;;;;;12.93;2.05;;;9.80;99.90;;;;;;5073080;28;20474;-72
2022/01/22 07:18:15;;;;;;;15.82;2.25;;;9.80;99.90;;;;;;5107629;28;20401;-75
2022/01/22 07:20:43;;;;;;;15.23;1.90;;;9.80;99.90;;;;;;5075606;28;20406;-73
2022/01/22 07:23:42;;;;;;;12.20;2.08;;;9.80;99.90;;;;;;5106060;28;20396;-73
2022/01/22 07:26:08;;;;;;;15.93;2.30;;;9.90;99.90;;;;;;5072195;28;20402;-72
2022/01/22 07:29:06;;;;;;;12.18;2.05;;;9.80;99.90;;;;;;5069700;28;20422;-74
2022/01/22 07:31:33;;;;;;;11.63;2.00;;;9.80;99.90;;;;;;5065569;28;20417;-74
2022/01/22 07:34:04;;;;;;;15.70;2.10;;;9.80;99.90;;;;;;5069623;28;20817;-73
2022/01/22 07:36:30;;;;;;;10.05;2.08;;;9.80;99.90;;;;;;5067931;28;20441;-74
2022/01/22 07:38:56;;;;;;;11.20;2.03;;;9.90;99.90;;;;;;5088668;28;20869;-73
2022/01/22 07:41:22;;;;;;;10.03;2.30;;;9.80;99.90;;;;;;5078981;28;20414;-73
2022/01/22 07:44:04;;;;;;;8.75;1.98;;;9.90;99.90;;;;;;5070808;28;20427;-73
2022/01/22 07:46:43;;;;;;;15.00;2.47;;;9.90;99.90;;;;;;5085061;28;20503;-74
2022/01/22 07:49:20;;;;;;;10.68;1.90;;;9.80;99.90;;;;;;5072451;28;20510;-75
2022/01/22 07:51:48;;;;;;;13.13;3.63;;;9.80;99.90;;;;;;5063524;28;20415;-71
2022/01/22 07:54:14;;;;;;;7.32;2.13;;;9.90;99.90;;;;;;5072828;28;20402;-74
2022/01/22 07:56:40;;;;;;;14.30;2.40;;;9.80;99.90;;;;;;5070395;28;20804;-73
2022/01/22 07:59:07;;;;;;;10.90;2.20;;;9.90;99.90;;;;;;5060298;28;20406;-74
2022/01/22 08:01:41;;;;;;;11.90;2.25;;;9.80;99.90;;;;;;5059371;28;20518;-72
2022/01/22 08:04:23;;;;;;;16.65;3.20;;;9.80;99.90;;;;;;5091321;28;20413;-73
2022/01/22 08:06:57;;;;;;;12.35;2.70;;;9.90;99.90;;;;;;5088435;28;20409;-71
2022/01/22 08:09:42;;;;;;;11.77;2.85;;;9.90;99.90;;;;;;5088327;28;21129;-72
2022/01/22 08:12:21;;;;;;;14.75;2.70;;;9.90;99.90;;;;;;5079012;28;20415;-72
2022/01/22 08:14:48;;;;;;;15.50;3.00;;;10.00;99.90;;;;;;5105576;28;20436;-72
2022/01/22 08:17:14;;;;;;;14.87;2.97;;;9.90;99.90;;;;;;5069734;28;20409;-70
2022/01/22 08:19:39;;;;;;;12.57;2.72;;;9.90;99.90;;;;;;5071460;28;20495;-73
2022/01/22 08:22:28;;;;;;;12.85;3.10;;;9.90;99.90;;;;;;5040670;28;20833;-70
2022/01/22 08:25:28;;;;;;;14.40;3.00;;;9.90;99.90;;;;;;5087782;28;20479;-72
2022/01/22 08:30:32;;;;;;;13.33;3.60;;;9.90;99.90;;;;;;5069910;28;20933;-72
2022/01/22 08:38:08;;;;;;;11.15;2.65;;;10.00;99.90;;;;;;5069730;28;20445;-72
2022/01/22 08:40:34;;;;;;;14.57;3.00;;;10.00;99.90;;;;;;5068234;28;20410;-70
2022/01/22 08:43:00;;;;;;;15.40;2.90;;;10.00;99.90;;;;;;5065665;28;20416;-73
2022/01/22 08:45:26;;;;;;;10.15;2.63;;;10.00;99.90;;;;;;5069157;28;20527;-73
2022/01/22 08:47:53;;;;;;;12.68;3.38;;;10.00;99.90;;;;;;5069300;28;20410;-73
2022/01/22 08:50:19;;;;;;;12.10;2.70;;;10.10;99.90;;;;;;5071201;28;20408;-73
2022/01/22 08:52:46;;;;;;;14.85;2.50;;;10.10;99.90;;;;;;5075679;28;20410;-73
2022/01/22 08:55:13;;;;;;;11.90;2.88;;;10.10;99.90;;;;;;5070610;28;20401;-70
2022/01/22 08:57:40;;;;;;;17.75;3.10;;;10.10;99.90;;;;;;5069506;28;20410;-70
2022/01/22 09:00:09;;;;;;;12.52;3.05;;;10.10;99.90;;;;;;5069946;28;20410;-71
2022/01/22 09:02:46;;;;;;;13.55;3.00;;;10.20;99.90;;;;;;5069980;28;20399;-71
2022/01/22 09:05:34;;;;;;;14.02;2.88;;;10.20;99.90;;;;;;5087036;28;20874;-72
2022/01/22 09:08:20;;;;;;;11.98;3.08;;;10.20;99.90;;;;;;5087458;28;20889;-71
2022/01/22 09:11:12;;;;;;;11.07;2.90;;;10.20;99.90;;;;;;5067287;28;20436;-70
2022/01/22 09:13:50;;;;;;;14.13;4.45;;;10.30;99.90;;;;;;5087999;28;20400;-71
2022/01/22 09:16:15;;;;;;;13.68;3.10;;;10.20;99.90;;;;;;5068630;28;20775;-70
2022/01/22 09:18:41;;;;;;;12.27;2.90;;;10.30;99.90;;;;;;5103863;28;20467;-71
2022/01/22 09:21:08;;;;;;;10.98;3.20;;;10.30;99.90;;;;;;5086949;28;20418;-72
2022/01/22 09:23:35;;;;;;;15.43;3.10;;;10.30;99.90;;;;;;5070689;28;20433;-71
2022/01/22 09:26:05;;;;;;;9.05;2.60;;;10.30;99.90;;;;;;5099941;28;21087;-70
2022/01/22 09:28:34;;;;;;;11.03;2.63;;;10.30;99.90;;;;;;5088227;28;20406;-72
2022/01/22 09:31:00;;;;;;;9.57;2.67;;;10.20;99.90;;;;;;5050652;28;20494;-71
2022/01/22 09:33:26;;;;;;;18.60;5.93;;;10.30;99.90;;;;;;5069778;28;20492;-72
2022/01/22 09:35:54;;;;;;;12.20;3.40;;;10.30;99.90;;;;;;5067076;28;20484;-72
2022/01/22 09:38:39;;;;;;;12.05;3.38;;;10.30;99.90;;;;;;5087911;28;20741;-72
2022/01/22 09:41:15;;;;;;;8.77;3.00;;;10.30;99.90;;;;;;5088103;28;20475;-71
2022/01/22 09:44:05;;;;;;;10.70;3.15;;;10.30;99.90;;;;;;5070023;28;20424;-72
2022/01/22 09:47:07;;;;;;;10.10;3.13;;;10.30;99.90;;;;;;5006958;28;20478;-72
2022/01/22 09:49:51;;;;;;;8.73;3.08;;;10.30;99.90;;;;;;5086897;28;20929;-72
2022/01/22 09:52:35;;;;;;;9.05;2.53;;;10.30;99.90;;;;;;5064364;28;20410;-72
2022/01/22 09:55:07;;;;;;;7.30;2.88;;;10.30;99.90;;;;;;5088780;28;20923;-73
2022/01/22 09:57:55;;;;;;;10.13;3.42;;;10.40;99.90;;;;;;5074039;28;20417;-74
2022/01/22 10:00:35;;;;;;;10.27;2.97;;;10.40;99.90;;;;;;5081732;28;20482;-72
2022/01/22 10:03:19;;;;;;;11.27;2.93;;;10.40;99.90;;;;;;5063903;28;20475;-71
2022/01/22 10:05:58;;;;;;;11.65;3.13;;;10.40;99.90;;;;;;5054666;28;20407;-71
2022/01/22 10:08:42;;;;;;;10.57;2.63;;;10.50;99.90;;;;;;5083781;28;20407;-71
2022/01/22 10:11:37;;;;;;;7.57;2.80;;;10.50;99.90;;;;;;5065269;28;20445;-70
2022/01/22 10:14:20;;;;;;;9.95;2.75;;;10.50;99.90;;;;;;5082925;28;20462;-71
2022/01/22 10:16:48;;;;;;;6.67;2.60;;;10.50;99.90;;;;;;5068115;28;20914;-72
2022/01/22 10:19:22;;;;;;;10.30;2.77;;;10.50;99.90;;;;;;5088262;28;20512;-72
2022/01/22 10:22:01;;;;;;;13.55;2.78;;;10.50;99.90;;;;;;5086611;28;20405;-72
2022/01/22 10:24:39;;;;;;;11.00;2.88;;;10.50;99.90;;;;;;5068310;28;20409;-71
2022/01/22 10:29:54;;;;;;;11.77;3.33;;;10.60;99.90;;;;;;5088655;28;20408;-72
2022/01/22 10:32:27;;;;;;;11.27;3.47;;;10.60;99.90;;;;;;5087216;28;21040;-72
2022/01/22 10:35:17;;;;;;;8.98;2.90;;;10.60;99.90;;;;;;5101247;28;20471;-71
2022/01/22 10:38:04;;;;;;;13.73;3.73;;;10.60;99.90;;;;;;5087717;28;20396;-71
2022/01/22 10:40:31;;;;;;;10.55;3.60;;;10.60;99.90;;;;;;5070731;28;20452;-71
2022/01/22 10:43:29;;;;;;;9.05;3.90;;;10.60;99.90;;;;;;5083357;28;20414;-70
2022/01/22 10:47:03;;;;;;;10.32;3.50;;;10.60;99.90;;;;;;5082612;28;20497;-71
2022/01/22 10:49:04;;;;;;;13.25;3.90;;;10.60;99.90;;;;;;5079800;28;20416;-70
2022/01/22 10:51:30;;;;;;;11.85;3.85;;;10.60;99.90;;;;;;5053089;28;20546;-72
2022/01/22 10:54:02;;;;;;;11.70;4.18;;;10.60;99.90;;;;;;5086467;28;20462;-72
2022/01/22 10:56:30;;;;;;;14.07;4.40;;;10.60;99.90;;;;;;5086701;28;20989;-71
2022/01/22 10:59:07;;;;;;;13.80;4.20;;;10.60;99.90;;;;;;5087598;28;20729;-72
2022/01/22 11:01:54;;;;;;;11.23;4.10;;;10.60;99.90;;;;;;5084402;28;20768;-71
2022/01/22 11:04:35;;;;;;;12.82;4.35;;;10.60;99.90;;;;;;5088065;28;20413;-72
2022/01/22 11:07:06;;;;;;;15.00;4.40;;;10.60;99.90;;;;;;5067824;28;20516;-70
2022/01/22 11:09:33;;;;;;;12.38;4.10;;;10.70;99.90;;;;;;5068871;28;20413;-72
2022/01/22 11:12:08;;;;;;;13.00;4.82;;;10.70;99.90;;;;;;5065343;28;21031;-70
2022/01/22 11:14:36;;;;;;;12.35;4.40;;;10.70;99.90;;;;;;5068013;28;20423;-70
2022/01/22 11:17:02;;;;;;;13.55;4.70;;;10.60;99.90;;;;;;5067953;28;20406;-74
2022/01/22 11:19:32;;;;;;;15.27;4.67;;;10.60;99.90;;;;;;5087957;28;20417;-72
2022/01/22 11:22:05;;;;;;;13.47;5.07;;;10.60;99.90;;;;;;5071130;28;20409;-70
2022/01/22 11:24:36;;;;;;;17.03;5.03;;;10.60;99.90;;;;;;5073554;28;20402;-68
2022/01/22 11:27:04;;;;;;;13.88;5.13;;;10.60;99.90;;;;;;5071784;28;20417;-72
2022/01/22 11:29:36;;;;;;;16.43;5.30;;;10.60;99.90;;;;;;5090006;28;20512;-72
2022/01/22 11:32:07;;;;;;;14.60;5.28;;;10.60;99.90;;;;;;5072056;28;20867;-70
2022/01/22 11:34:36;;;;;;;15.13;5.10;;;10.70;99.90;;;;;;5086445;28;20423;-72
2022/01/22 11:37:12;;;;;;;15.55;5.20;;;10.70;99.90;;;;;;5071633;28;20429;-70
2022/01/22 11:39:37;;;;;;;16.60;5.40;;;10.70;99.90;;;;;;5089956;28;20870;-70
2022/01/22 11:42:04;;;;;;;16.17;5.00;;;10.60;99.90;;;;;;5070284;28;20406;-71
2022/01/22 11:44:33;;;;;;;16.88;4.90;;;10.60;99.90;;;;;;5073679;28;20408;-71
2022/01/22 11:47:14;;;;;;;13.98;4.97;;;10.70;99.90;;;;;;5079177;28;20405;-72
2022/01/22 11:49:41;;;;;;;15.32;5.25;;;10.70;99.90;;;;;;5091233;28;20458;-71
2022/01/22 11:52:12;;;;;;;16.30;5.55;;;10.80;99.90;;;;;;5087905;28;20467;-73
2022/01/22 11:54:55;;;;;;;14.77;5.18;;;10.80;99.90;;;;;;5073132;28;20441;-70
2022/01/22 11:57:22;;;;;;;18.77;5.45;;;10.90;99.90;;;;;;5070501;28;20463;-69
2022/01/22 11:59:49;;;;;;;14.05;5.20;;;10.90;99.90;;;;;;5073369;28;20414;-72
2022/01/22 12:02:16;;;;;;;14.68;6.60;;;10.90;99.90;;;;;;5071297;28;20444;-70
2022/01/22 12:04:41;;;;;;;16.13;7.25;;;10.90;99.90;;;;;;5073183;28;20489;-70
2022/01/22 12:07:10;;;;;;;12.67;5.37;;;10.90;99.90;;;;;;5079763;28;20493;-70
2022/01/22 12:09:50;;;;;;;15.40;5.80;;;10.90;99.90;;;;;;5094118;28;20428;-70
2022/01/22 12:15:15;;;;;;;12.68;5.35;;;10.90;99.90;;;;;;5103961;28;20401;-72
2022/01/22 12:17:50;;;;;;;15.13;6.20;;;10.90;99.90;;;;;;5088210;28;20762;-70
2022/01/22 12:23:11;;;;;;;14.83;5.40;;;10.90;99.90;;;;;;5089962;28;20445;-70
2022/01/22 12:25:39;;;;;;;13.75;5.68;;;11.00;99.90;;;;;;5071801;28;20444;-69
2022/01/22 12:28:07;;;;;;;15.80;5.40;;;10.90;99.90;;;;;;5073002;28;20398;-72
2022/01/22 12:30:36;;;;;;;14.85;5.95;;;10.90;99.90;;;;;;5067281;28;20488;-70
2022/01/22 12:33:06;;;;;;;14.88;5.30;;;10.80;99.90;;;;;;5088185;28;20411;-72
2022/01/22 12:35:37;;;;;;;12.88;5.25;;;10.80;99.90;;;;;;5090817;28;20390;-70
2022/01/22 12:38:35;;;;;;;11.48;5.00;;;10.80;99.90;;;;;;5072204;28;20414;-70
2022/01/22 12:41:35;;;;;;;13.30;5.47;;;10.80;99.90;;;;;;5070683;28;20423;-71
2022/01/22 12:44:34;;;;;;;13.45;5.15;;;10.70;99.90;;;;;;5072180;28;20479;-70
2022/01/22 12:47:06;;;;;;;13.02;5.43;;;10.70;99.90;;;;;;5089628;28;20406;-69
2022/01/22 12:49:33;;;;;;;13.35;5.57;;;10.60;99.90;;;;;;5090723;28;20401;-70
2022/01/22 12:52:03;;;;;;;13.10;5.23;;;10.60;99.90;;;;;;5079613;28;20408;-70
2022/01/22 12:54:36;;;;;;;18.30;6.07;;;10.60;99.90;;;;;;5075003;28;20413;-69
2022/01/22 12:57:07;;;;;;;18.63;5.63;;;10.50;99.90;;;;;;5088849;28;20409;-71
2022/01/22 13:00:08;;;;;;;15.20;5.70;;;10.50;99.90;;;;;;5071799;28;20906;-72
2022/01/22 13:02:46;;;;;;;18.77;6.00;;;10.50;99.90;;;;;;5087483;28;20443;-71
2022/01/22 13:05:14;;;;;;;16.67;5.88;;;10.50;99.90;;;;;;5070585;28;20758;-69
2022/01/22 13:08:00;;;;;;;13.77;5.90;;;10.50;99.90;;;;;;5086794;28;20428;-71
2022/01/22 13:10:44;;;;;;;18.25;5.43;;;10.50;99.90;;;;;;5079577;28;20532;-70
2022/01/22 13:13:14;;;;;;;14.63;5.80;;;10.50;99.90;;;;;;5072289;28;20394;-72
2022/01/22 13:15:40;;;;;;;13.48;5.57;;;10.50;99.90;;;;;;5088900;28;20410;-70
2022/01/22 13:18:06;;;;;;;13.10;6.18;;;10.50;99.90;;;;;;5089919;28;20478;-69
2022/01/22 13:20:37;;;;;;;18.25;6.88;;;10.50;99.90;;;;;;5085775;28;20884;-70
2022/01/22 13:23:16;;;;;;;17.73;5.75;;;10.50;99.90;;;;;;5089712;28;20404;-71
2022/01/22 13:25:42;;;;;;;15.68;5.53;;;10.50;99.90;;;;;;5084446;28;20408;-71
2022/01/22 13:28:11;;;;;;;15.13;5.47;;;10.40;99.90;;;;;;5105236;28;20414;-72
2022/01/22 13:30:45;;;;;;;16.45;5.80;;;10.40;99.90;;;;;;5079737;28;20422;-70
2022/01/22 13:33:18;;;;;;;16.52;5.93;;;10.40;99.90;;;;;;5092828;28;20975;-71
2022/01/22 13:49:37;;;;;;;17.77;7.60;;;10.40;99.90;;;;;;5087455;28;20435;-70
2022/01/22 13:52:08;;;;;;;17.27;7.53;;;10.40;99.90;;;;;;5089810;28;20425;-70
2022/01/22 13:54:43;;;;;;;19.10;7.78;;;10.40;99.90;;;;;;5070512;28;20489;-69
2022/01/22 13:57:12;;;;;;;14.68;7.80;;;10.40;99.90;;;;;;5082645;28;20419;-70
2022/01/22 13:59:41;;;;;;;16.13;7.60;;;10.40;99.90;;;;;;5098850;28;20553;-70
2022/01/22 14:04:53;;;;;;;16.67;7.47;;;10.40;99.90;;;;;;5104001;27;20402;-70
2022/01/22 14:07:25;;;;;;;16.50;7.78;;;10.50;99.90;;;;;;5102869;28;20406;-70
2022/01/22 14:09:54;;;;;;;21.38;8.68;;;10.40;99.90;;;;;;5100574;28;20408;-71
2022/01/22 14:12:20;;;;;;;18.88;8.48;;;10.40;99.90;;;;;;5071644;28;20961;-71
2022/01/22 14:15:03;;;;;;;21.25;9.45;;;10.40;99.90;;;;;;5097981;28;20404;-70
2022/01/22 14:17:37;;;;;;;18.88;8.40;;;10.40;99.90;;;;;;5072801;28;20417;-72
2022/01/22 14:20:03;;;;;;;20.65;8.57;;;10.30;99.90;;;;;;5107482;28;20415;-70
2022/01/22 14:22:49;;;;;;;20.65;8.38;;;10.30;99.90;;;;;;5083023;28;20408;-70
2022/01/22 14:25:15;;;;;;;21.85;9.00;;;10.30;99.90;;;;;;5101618;28;20400;-70
2022/01/22 14:27:41;;;;;;;18.92;8.20;;;10.40;99.90;;;;;;5082271;28;20412;-72
2022/01/22 14:30:07;;;;;;;25.07;12.37;;;10.40;99.90;;;;;;5065300;28;20406;-70
2022/01/22 14:32:33;;;;;;;17.05;8.20;;;10.40;99.90;;;;;;5073556;28;20505;-73
2022/01/22 14:34:59;;;;;;;18.98;8.18;;;10.40;99.90;;;;;;5084754;28;20408;-71
2022/01/22 14:37:31;;;;;;;16.20;7.80;;;10.40;99.90;;;;;;5085472;28;20410;-72
2022/01/22 14:45:30;;;;;;;19.05;8.70;;;10.40;99.90;;;;;;5067310;28;20445;-72
2022/01/22 14:47:58;;;;;;;15.38;7.57;;;10.40;99.90;;;;;;5065240;28;20731;-70
2022/01/22 14:50:25;;;;;;;17.98;8.10;;;10.40;99.90;;;;;;5075179;28;20432;-70
2022/01/22 14:52:58;;;;;;;17.20;7.53;;;10.40;99.90;;;;;;5066494;28;20419;-70
2022/01/22 14:55:25;;;;;;;17.35;8.80;;;10.40;99.90;;;;;;5077761;28;20407;-71
2022/01/22 14:57:52;;;;;;;16.73;9.82;;;10.40;99.90;;;;;;5077385;28;20456;-69
2022/01/22 15:00:19;;;;;;;19.85;8.05;;;10.40;99.90;;;;;;5070491;28;20418;-72
2022/01/22 15:02:46;;;;;;;17.23;8.02;;;10.40;99.90;;;;;;5066236;28;20923;-71